Qaqortoq

KL  EN  DA
ASIAQ
Weather Now GREENLAND SURVEY
Updated [WGT/WGST] Temperature [°C] Wind [m/s] Air pressure [hPa] Relative humidity [%] Precipitation [mm]
Present Wind chill Speed Max
21.01 20:00-8,00,01,1 ⇙3,9997700,0
21.01 19:00-8,7-13,22,4 ⇐4,5997730,0
21.01 18:00-8,5-13,22,6 ⇐4,5998760,0
21.01 17:00-9,0-12,01,5 ⇓3,2998770,0
21.01 16:00-8,8-11,61,4 ⇙3,2998750,0
21.01 15:00-8,40,00,5 ⇐2,5998730,0
21.01 14:00-8,60,01,1 ⇓3,2998760,0
21.01 13:00-8,0-12,42,4 ⇙3,6998780,0
21.01 12:00-8,1-11,71,9 ⇓3,2999790,0
21.01 11:00-8,30,00,0 ⇓2,9999850,0
21.01 10:00-8,5-12,21,9 ⇙3,0999850,0
21.01 09:00-7,80,01,3 ⇓2,3999780,0
21.01 08:00-8,10,01,1 ⇓2,1999780,0
21.01 07:00-7,90,01,0 ⇓2,6999760,0
21.01 06:00-7,60,01,1 ⇓2,31000780,0
21.01 05:00-6,90,01,1 ⇓4,51000760,0
21.01 04:00-5,9-10,73,1 ⇘4,7999730,0
21.01 03:00-5,9-9,62,2 ⇘7,2999780,0
21.01 02:00-5,0-11,04,8 ⇘7,9999750,0
21.01 01:00-4,9-11,65,9 ⇘10,1998750,0
21.01 00:00-4,4-11,16,2 ⇘10,3998800,0
20.01 23:00-4,0-11,57,9 ⇘11,8997800,0
20.01 22:00-4,4-12,38,6 ⇘11,9997900,2
20.01 21:00-4,0-11,68,1 ⇒10,9996890,0
20.01 20:00-4,1-11,37,3 ⇒9,7995920,6
Position: (60.716667,-46.033333)

[Back]